createdAt,value
2018-03-20T00:01:52.954Z,97.40
2018-03-20T00:04:20.822Z,97.20
2018-03-20T00:06:48.690Z,96.90
2018-03-20T00:09:16.559Z,97.50
2018-03-20T00:11:44.426Z,97.50
2018-03-20T00:14:12.396Z,97.30
2018-03-20T00:16:40.261Z,97.50
2018-03-20T00:19:08.127Z,97.70
2018-03-20T00:21:35.994Z,98.20
2018-03-20T00:24:03.862Z,97.70
2018-03-20T00:26:31.731Z,97.90
2018-03-20T00:28:59.597Z,97.80
2018-03-20T00:31:27.474Z,98.00
2018-03-20T00:33:55.331Z,97.20
2018-03-20T00:36:23.202Z,97.00
2018-03-20T00:38:51.066Z,97.20
2018-03-20T00:41:18.934Z,96.40
2018-03-20T00:43:46.800Z,96.10
2018-03-20T00:46:14.669Z,95.80
2018-03-20T00:48:42.536Z,96.30
2018-03-20T00:51:10.402Z,95.20
2018-03-20T00:53:38.276Z,96.40
2018-03-20T00:56:06.145Z,96.20
2018-03-20T00:58:34.005Z,96.00
2018-03-20T01:01:01.872Z,95.40
2018-03-20T01:03:29.743Z,95.20
2018-03-20T01:05:57.611Z,94.50
2018-03-20T01:08:25.474Z,94.10
2018-03-20T01:10:53.341Z,94.40
2018-03-20T01:13:21.209Z,94.20
2018-03-20T01:15:48.926Z,94.10
2018-03-20T01:18:16.738Z,94.20
2018-03-20T01:20:44.615Z,94.10
2018-03-20T01:23:12.473Z,93.90
2018-03-20T01:25:40.341Z,93.50
2018-03-20T01:28:08.207Z,94.20
2018-03-20T01:30:36.075Z,94.40
2018-03-20T01:33:03.941Z,94.60
2018-03-20T01:35:31.813Z,94.40
2018-03-20T01:37:59.678Z,94.00
2018-03-20T01:40:27.546Z,94.00
2018-03-20T01:42:55.413Z,94.00
2018-03-20T01:45:23.211Z,93.90
2018-03-20T01:47:51.863Z,94.00
2018-03-20T01:50:19.730Z,94.20
2018-03-20T01:52:47.598Z,93.80
2018-03-20T01:55:15.472Z,93.70
2018-03-20T01:57:43.333Z,93.80
2018-03-20T02:00:11.199Z,93.70
2018-03-20T02:02:39.066Z,93.90
2018-03-20T02:05:06.934Z,93.60
2018-03-20T02:07:34.802Z,93.40
2018-03-20T02:10:02.669Z,93.50
2018-03-20T02:12:30.536Z,93.40
2018-03-20T02:14:58.403Z,92.80
2018-03-20T02:17:27.089Z,93.20
2018-03-20T02:19:54.958Z,93.20
2018-03-20T02:22:22.825Z,93.20
2018-03-20T02:24:50.692Z,93.60
2018-03-20T02:27:18.560Z,93.80
2018-03-20T02:29:46.427Z,93.70
2018-03-20T02:32:14.293Z,93.90
2018-03-20T02:34:42.162Z,94.00
2018-03-20T02:37:10.033Z,94.10
2018-03-20T02:39:37.896Z,94.10
2018-03-20T02:42:05.764Z,93.90
2018-03-20T02:44:34.450Z,94.10
2018-03-20T02:47:02.321Z,93.80
2018-03-20T02:49:30.186Z,93.60
2018-03-20T02:51:58.051Z,93.30
2018-03-20T02:54:25.923Z,93.50
2018-03-20T02:56:53.787Z,93.30
2018-03-20T02:59:21.654Z,94.10
2018-03-20T03:01:49.520Z,94.80
2018-03-20T03:04:17.387Z,95.30
2018-03-20T03:06:45.256Z,96.60
2018-03-20T03:09:13.126Z,97.30
2018-03-20T03:11:41.095Z,97.30
2018-03-20T03:14:08.959Z,97.30
2018-03-20T03:16:36.831Z,97.10
2018-03-20T03:19:04.695Z,96.50
2018-03-20T03:21:32.561Z,95.30
2018-03-20T03:24:00.430Z,95.00
2018-03-20T03:26:28.296Z,94.90
2018-03-20T03:28:56.983Z,95.10
2018-03-20T03:31:24.843Z,95.10
2018-03-20T03:33:52.717Z,94.90
2018-03-20T03:36:20.585Z,94.40
2018-03-20T03:38:49.103Z,93.90
2018-03-20T03:41:17.753Z,95.70
2018-03-20T03:43:46.439Z,96.30
2018-03-20T03:46:14.306Z,96.30
2018-03-20T03:48:42.174Z,96.60
2018-03-20T03:51:10.065Z,96.90
2018-03-20T03:53:37.908Z,96.80
2018-03-20T03:56:05.802Z,96.10
2018-03-20T03:58:33.642Z,96.20
2018-03-20T04:01:01.511Z,96.90
2018-03-20T04:03:29.378Z,97.20
2018-03-20T04:05:57.245Z,96.50
2018-03-20T04:08:25.041Z,98.80
2018-03-20T04:10:52.877Z,99.60
2018-03-20T04:13:20.744Z,99.80
2018-03-20T04:15:48.619Z,99.90
2018-03-20T04:18:16.480Z,99.90
2018-03-20T04:20:44.347Z,99.90
2018-03-20T04:23:12.213Z,99.90
2018-03-20T04:25:40.010Z,99.90
2018-03-20T04:28:08.563Z,99.90
2018-03-20T04:30:36.431Z,99.90
2018-03-20T04:33:04.298Z,99.90
2018-03-20T04:35:32.164Z,99.90
2018-03-20T04:38:00.032Z,99.90
2018-03-20T04:40:27.898Z,99.90
2018-03-20T04:42:55.767Z,99.90
2018-03-20T04:45:23.635Z,99.90
2018-03-20T04:47:51.509Z,99.90
2018-03-20T04:50:19.370Z,99.90
2018-03-20T04:52:47.243Z,99.90
2018-03-20T04:55:15.103Z,99.90
2018-03-20T04:57:42.972Z,99.90
2018-03-20T05:00:10.839Z,99.90
2018-03-20T05:02:38.706Z,99.90
2018-03-20T05:05:06.618Z,99.90
2018-03-20T05:07:35.258Z,99.80
2018-03-20T05:10:03.131Z,99.70
2018-03-20T05:12:30.993Z,98.50
2018-03-20T05:14:58.864Z,99.50
2018-03-20T05:17:26.732Z,99.90
2018-03-20T05:20:12.316Z,99.90
2018-03-20T05:22:57.893Z,99.90
2018-03-20T05:25:25.762Z,99.90
2018-03-20T05:27:53.627Z,99.90
2018-03-20T05:30:21.495Z,99.90
2018-03-20T05:32:49.365Z,99.90
2018-03-20T05:35:17.229Z,99.90
2018-03-20T05:37:45.097Z,99.90
2018-03-20T05:40:12.964Z,99.90
2018-03-20T05:42:40.831Z,99.90
2018-03-20T05:45:08.699Z,99.90
2018-03-20T05:47:42.198Z,99.90
2018-03-20T05:50:15.596Z,99.90
2018-03-20T05:52:43.462Z,99.90
2018-03-20T05:55:11.332Z,99.90
2018-03-20T05:57:39.198Z,99.90
2018-03-20T06:00:07.064Z,99.90
2018-03-20T06:02:34.932Z,99.90
2018-03-20T06:05:02.799Z,99.90
2018-03-20T06:07:30.671Z,99.90
2018-03-20T06:09:58.383Z,99.90
2018-03-20T06:12:26.195Z,99.50
2018-03-20T06:14:55.506Z,98.60
2018-03-20T06:17:23.364Z,97.90
2018-03-20T06:19:51.232Z,97.30
2018-03-20T06:22:19.098Z,95.20
2018-03-20T06:24:46.967Z,94.30
2018-03-20T06:27:14.836Z,92.80
2018-03-20T06:29:42.703Z,91.20
2018-03-20T06:32:10.569Z,89.20
2018-03-20T06:34:38.436Z,82.90
2018-03-20T06:37:06.303Z,73.30
2018-03-20T06:39:34.171Z,66.10
2018-03-20T06:42:02.041Z,61.90
2018-03-20T06:44:29.906Z,55.70
2018-03-20T06:46:57.773Z,47.70
2018-03-20T06:49:25.640Z,46.90
2018-03-20T06:51:53.506Z,46.60
2018-03-20T06:54:21.374Z,50.40
2018-03-20T06:56:49.241Z,51.60
2018-03-20T06:59:17.109Z,48.80
2018-03-20T07:01:44.976Z,46.60
2018-03-20T07:04:12.843Z,49.10
2018-03-20T07:06:40.711Z,50.10
2018-03-20T07:09:08.578Z,57.70
2018-03-20T07:11:36.446Z,65.60
2018-03-20T07:14:05.132Z,86.00
2018-03-20T07:16:33.002Z,86.10
2018-03-20T07:19:00.877Z,89.50
2018-03-20T07:21:28.734Z,90.70
2018-03-20T07:23:56.601Z,92.30
2018-03-20T07:26:24.467Z,93.60
2018-03-20T07:28:52.339Z,93.70
2018-03-20T07:31:20.203Z,93.10
2018-03-20T07:33:48.073Z,93.20
2018-03-20T07:36:15.938Z,93.00
2018-03-20T07:38:43.807Z,90.30
2018-03-20T07:41:11.672Z,90.50
2018-03-20T07:43:39.539Z,90.20
2018-03-20T07:46:07.406Z,88.90
2018-03-20T07:48:35.274Z,89.20
2018-03-20T07:51:03.141Z,89.30
2018-03-20T07:53:31.008Z,86.80
2018-03-20T07:55:58.881Z,84.30
2018-03-20T07:58:26.743Z,84.20
2018-03-20T08:00:54.611Z,85.30
2018-03-20T08:03:22.478Z,86.80
2018-03-20T08:05:50.374Z,83.60
2018-03-20T08:08:19.031Z,83.30
2018-03-20T08:10:46.899Z,83.40
2018-03-20T08:13:14.767Z,80.70
2018-03-20T08:15:42.531Z,86.80
2018-03-20T08:18:10.399Z,91.40
2018-03-20T08:20:38.266Z,92.40
2018-03-20T08:23:06.133Z,93.90
2018-03-20T08:25:34.000Z,95.40
2018-03-20T08:28:01.867Z,95.50
2018-03-20T08:30:29.736Z,96.70
2018-03-20T08:32:57.602Z,97.20
2018-03-20T08:35:25.469Z,96.30
2018-03-20T08:37:53.337Z,97.90
2018-03-20T08:40:21.204Z,97.70
2018-03-20T08:42:49.095Z,98.80
2018-03-20T08:45:17.758Z,99.10
2018-03-20T08:47:45.630Z,99.10
2018-03-20T08:50:13.492Z,98.90
2018-03-20T08:52:41.361Z,99.50
2018-03-20T08:55:09.228Z,99.60
2018-03-20T08:57:37.095Z,99.60
2018-03-20T09:00:04.961Z,99.90
2018-03-20T09:02:32.830Z,99.90
2018-03-20T09:05:00.697Z,99.90
2018-03-20T09:07:28.564Z,99.90
2018-03-20T09:09:56.433Z,99.90
2018-03-20T09:12:24.374Z,99.90
2018-03-20T09:14:52.984Z,99.90
2018-03-20T09:17:20.857Z,99.90
2018-03-20T09:19:48.719Z,99.90
2018-03-20T09:22:16.587Z,99.90
2018-03-20T09:24:44.382Z,99.90
2018-03-20T09:27:12.936Z,99.90
2018-03-20T09:29:40.803Z,99.90
2018-03-20T09:32:08.670Z,99.90
2018-03-20T09:34:36.538Z,99.90
2018-03-20T09:37:04.407Z,99.90
2018-03-20T09:39:32.272Z,99.90
2018-03-20T09:42:00.140Z,99.90
2018-03-20T09:44:28.007Z,99.90
2018-03-20T09:46:55.877Z,99.90
2018-03-20T09:49:23.742Z,99.90
2018-03-20T09:51:51.662Z,99.90
2018-03-20T09:54:20.296Z,99.90
2018-03-20T09:56:48.162Z,99.90
2018-03-20T09:59:16.058Z,99.90
2018-03-20T10:01:44.716Z,97.50
2018-03-20T10:04:12.584Z,97.50
2018-03-20T10:06:40.451Z,99.10
2018-03-20T10:09:08.248Z,98.70
2018-03-20T10:11:36.800Z,91.40
2018-03-20T10:14:04.670Z,91.40
2018-03-20T10:16:32.535Z,95.50
2018-03-20T10:19:00.402Z,88.10
2018-03-20T10:21:28.278Z,89.60
2018-03-20T10:23:56.136Z,77.20
2018-03-20T10:26:24.005Z,68.00
2018-03-20T10:28:51.871Z,67.40
2018-03-20T10:31:19.738Z,65.20
2018-03-20T10:33:47.539Z,66.90
2018-03-20T10:36:16.087Z,75.50
2018-03-20T10:38:43.956Z,75.50
2018-03-20T10:41:11.822Z,77.80
2018-03-20T10:43:39.689Z,89.10
2018-03-20T10:46:07.557Z,86.40
2018-03-20T10:48:35.425Z,90.40
2018-03-20T10:51:03.292Z,89.30
2018-03-20T10:53:31.160Z,90.60
2018-03-20T10:55:59.026Z,90.60
2018-03-20T10:58:26.894Z,91.50
2018-03-20T11:01:00.496Z,88.90
2018-03-20T11:03:28.362Z,82.30
2018-03-20T11:05:56.230Z,86.50
2018-03-20T11:08:24.097Z,89.70
2018-03-20T11:10:51.965Z,84.10
2018-03-20T11:13:19.832Z,83.10
2018-03-20T11:15:47.700Z,79.80
2018-03-20T11:18:15.567Z,82.50
2018-03-20T11:20:43.434Z,90.90
2018-03-20T11:23:11.302Z,92.60
2018-03-20T11:25:39.168Z,95.00
2018-03-20T11:28:07.036Z,94.20
2018-03-20T11:30:34.904Z,95.80
2018-03-20T11:33:02.770Z,94.30
2018-03-20T11:35:30.638Z,94.10
2018-03-20T11:37:58.504Z,93.80
2018-03-20T11:40:26.372Z,93.40
2018-03-20T11:42:54.240Z,93.20
2018-03-20T11:45:22.107Z,93.30
2018-03-20T11:47:49.974Z,93.20
2018-03-20T11:50:17.842Z,92.20
2018-03-20T11:52:45.754Z,91.30
2018-03-20T11:55:14.293Z,93.30
2018-03-20T11:57:42.160Z,93.30
2018-03-20T12:00:10.028Z,92.50
2018-03-20T12:02:37.902Z,88.90
2018-03-20T12:05:05.762Z,89.30
2018-03-20T12:07:33.630Z,87.60
2018-03-20T12:10:01.497Z,83.90
2018-03-20T12:12:29.364Z,85.60
2018-03-20T12:14:57.232Z,87.00
2018-03-20T12:17:25.099Z,90.20
2018-03-20T12:19:52.998Z,91.20
2018-03-20T12:22:21.652Z,92.20
2018-03-20T12:24:49.515Z,92.20
2018-03-20T12:27:17.387Z,91.90
2018-03-20T12:29:45.254Z,93.20
2018-03-20T12:32:13.125Z,92.60
2018-03-20T12:34:40.988Z,93.20
2018-03-20T12:37:08.856Z,92.90
2018-03-20T12:39:36.723Z,94.20
2018-03-20T12:42:04.591Z,94.10
2018-03-20T12:44:32.458Z,91.10
2018-03-20T12:47:00.326Z,91.00
2018-03-20T12:49:28.194Z,90.80
2018-03-20T12:51:56.060Z,91.50
2018-03-20T12:54:23.928Z,91.00
2018-03-20T12:56:51.796Z,92.80
2018-03-20T12:59:19.662Z,93.80
2018-03-20T13:01:47.458Z,95.50
2018-03-20T13:04:16.011Z,95.00
2018-03-20T13:06:43.879Z,94.90
2018-03-20T13:09:11.746Z,94.90
2018-03-20T13:11:39.613Z,96.30
2018-03-20T13:14:07.480Z,96.10
2018-03-20T13:16:35.360Z,96.70
2018-03-20T13:19:04.035Z,97.80
2018-03-20T13:24:05.811Z,98.30
2018-03-20T13:26:33.678Z,98.40
2018-03-20T13:29:01.545Z,99.30
2018-03-20T13:31:29.413Z,99.90
2018-03-20T13:33:57.280Z,99.90
2018-03-20T13:36:25.146Z,99.90
2018-03-20T13:38:53.014Z,99.90
2018-03-20T13:41:20.881Z,99.90
2018-03-20T13:43:48.804Z,99.90
2018-03-20T13:46:17.435Z,99.90
2018-03-20T13:48:45.302Z,99.90
2018-03-20T13:51:13.170Z,99.90
2018-03-20T13:53:40.935Z,99.90
2018-03-20T13:56:08.802Z,99.90
2018-03-20T13:58:36.670Z,99.90
2018-03-20T14:01:04.537Z,99.90
2018-03-20T14:03:32.404Z,99.90
2018-03-20T14:06:00.272Z,99.90
2018-03-20T14:08:28.138Z,99.90
2018-03-20T14:10:56.007Z,99.90
2018-03-20T14:13:23.874Z,99.90
2018-03-20T14:15:51.741Z,99.90
2018-03-20T14:18:19.607Z,99.90
2018-03-20T14:20:48.191Z,99.90
2018-03-20T14:23:16.071Z,99.90
2018-03-20T14:25:43.926Z,99.90
2018-03-20T14:28:11.793Z,99.90
2018-03-20T14:30:39.661Z,99.90
2018-03-20T14:33:07.529Z,99.90
2018-03-20T14:35:35.395Z,99.90
2018-03-20T14:38:03.263Z,99.90
2018-03-20T14:40:31.847Z,99.90
2018-03-20T14:42:59.714Z,99.90
2018-03-20T14:45:27.581Z,99.90
2018-03-20T14:47:55.449Z,99.90
2018-03-20T14:50:23.316Z,99.90
2018-03-20T14:52:51.183Z,99.90
2018-03-20T14:55:19.051Z,99.90
2018-03-20T14:57:46.919Z,99.90
2018-03-20T15:00:14.786Z,99.90
2018-03-20T15:02:42.653Z,99.90
2018-03-20T15:05:10.521Z,99.90
2018-03-20T15:07:38.387Z,99.90
2018-03-20T15:10:06.254Z,99.90
2018-03-20T15:12:34.122Z,99.90
2018-03-20T15:15:01.990Z,99.90
2018-03-20T15:17:29.858Z,99.90
2018-03-20T15:19:57.787Z,99.90
2018-03-20T15:22:26.414Z,99.90
2018-03-20T15:24:54.278Z,99.90
2018-03-20T15:27:22.145Z,99.90
2018-03-20T15:29:50.013Z,99.90
2018-03-20T15:32:17.880Z,99.90
2018-03-20T15:34:45.747Z,99.90
2018-03-20T15:37:13.616Z,99.90
2018-03-20T15:39:41.482Z,99.90
2018-03-20T15:42:09.349Z,99.90
2018-03-20T15:44:37.216Z,99.90
2018-03-20T15:47:05.084Z,99.90
2018-03-20T15:49:32.951Z,99.90
2018-03-20T15:52:00.819Z,99.90
2018-03-20T15:54:28.685Z,99.90
2018-03-20T15:56:56.553Z,99.90
2018-03-20T15:59:24.422Z,99.90
2018-03-20T16:01:52.287Z,99.90
2018-03-20T16:04:20.154Z,99.90
2018-03-20T16:06:48.023Z,99.90
2018-03-20T16:09:15.913Z,99.90
2018-03-20T16:11:44.474Z,99.90
2018-03-20T16:14:12.343Z,99.90
2018-03-20T16:16:40.209Z,99.90
2018-03-20T16:19:08.076Z,99.90
2018-03-20T16:21:35.942Z,99.90
2018-03-20T16:24:03.817Z,99.90
2018-03-20T16:26:31.679Z,99.90
2018-03-20T16:28:59.545Z,99.90
2018-03-20T16:31:27.414Z,99.90
2018-03-20T16:33:55.280Z,99.90
2018-03-20T16:36:24.068Z,99.90
2018-03-20T16:38:51.938Z,99.90
2018-03-20T16:41:19.802Z,99.90
2018-03-20T16:43:47.671Z,99.90
2018-03-20T16:46:15.539Z,99.90
2018-03-20T16:48:43.405Z,99.90
2018-03-20T16:51:11.273Z,99.90
2018-03-20T16:53:39.140Z,99.90
2018-03-20T16:56:07.008Z,99.90
2018-03-20T16:58:34.874Z,99.90
2018-03-20T17:01:02.743Z,99.90
2018-03-20T17:03:30.610Z,99.90
2018-03-20T17:05:58.477Z,99.90
2018-03-20T17:08:26.191Z,99.90
2018-03-20T17:10:54.007Z,99.90
2018-03-20T17:13:21.874Z,99.90
2018-03-20T17:15:49.741Z,99.90
2018-03-20T17:18:18.428Z,99.90
2018-03-20T17:20:46.295Z,99.90
2018-03-20T17:23:14.162Z,99.90
2018-03-20T17:25:42.030Z,99.90
2018-03-20T17:28:09.897Z,99.90
2018-03-20T17:30:37.765Z,99.90
2018-03-20T17:33:05.631Z,99.90
2018-03-20T17:35:37.390Z,99.90
2018-03-20T17:38:05.258Z,99.90
2018-03-20T17:40:33.124Z,99.90
2018-03-20T17:43:00.992Z,99.90
2018-03-20T17:45:28.859Z,99.90
2018-03-20T17:47:56.727Z,99.90
2018-03-20T17:50:24.594Z,99.90
2018-03-20T17:52:52.358Z,99.90
2018-03-20T17:55:20.226Z,99.90
2018-03-20T17:57:48.100Z,99.90
2018-03-20T18:00:15.963Z,99.90
2018-03-20T18:02:43.828Z,99.90
2018-03-20T18:05:15.472Z,99.90
2018-03-20T18:07:45.861Z,99.90
2018-03-20T18:10:18.986Z,99.90
2018-03-20T18:12:48.615Z,99.90
2018-03-20T18:15:17.402Z,99.90
2018-03-20T18:17:45.274Z,99.90
2018-03-20T18:20:13.134Z,99.90
2018-03-20T18:22:41.018Z,99.90
2018-03-20T18:25:08.869Z,99.90
2018-03-20T18:27:36.738Z,99.90
2018-03-20T18:30:04.603Z,99.90
2018-03-20T18:32:32.468Z,99.90
2018-03-20T18:35:00.337Z,99.90
2018-03-20T18:37:29.905Z,99.90
2018-03-20T18:39:57.891Z,99.90
2018-03-20T18:42:27.363Z,99.90
2018-03-20T18:44:57.798Z,99.90
2018-03-20T18:47:26.216Z,99.90
2018-03-20T18:49:55.222Z,99.90
2018-03-20T18:52:23.131Z,99.90
2018-03-20T18:54:52.884Z,99.90
2018-03-20T18:57:21.691Z,99.90
2018-03-20T18:59:49.557Z,99.90
2018-03-20T19:02:19.327Z,99.90
2018-03-20T19:04:47.136Z,99.90
2018-03-20T19:07:15.003Z,99.90
2018-03-20T19:09:42.871Z,99.90
2018-03-20T19:12:11.991Z,99.90
2018-03-20T19:14:39.760Z,99.90
2018-03-20T19:17:07.599Z,99.90
2018-03-20T19:19:35.465Z,99.90
2018-03-20T19:22:03.339Z,99.90
2018-03-20T19:24:31.201Z,99.90
2018-03-20T19:26:59.887Z,99.90
2018-03-20T19:29:27.753Z,99.90
2018-03-20T19:31:55.651Z,99.90
2018-03-20T19:34:24.310Z,99.90
2018-03-20T19:36:52.179Z,99.90
2018-03-20T19:39:20.759Z,99.90
2018-03-20T19:41:48.466Z,99.90
2018-03-20T19:44:17.108Z,99.90
2018-03-20T19:46:44.976Z,99.90
2018-03-20T19:49:12.842Z,99.90
2018-03-20T19:51:40.712Z,99.90
2018-03-20T19:54:08.577Z,99.90
2018-03-20T19:56:36.445Z,99.90
2018-03-20T19:59:04.312Z,99.90
2018-03-20T20:01:32.179Z,99.90
2018-03-20T20:04:00.048Z,99.90
2018-03-20T20:06:27.914Z,99.90
2018-03-20T20:08:55.781Z,99.90
2018-03-20T20:11:23.648Z,99.90
2018-03-20T20:13:51.516Z,99.90
2018-03-20T20:16:19.388Z,99.90
2018-03-20T20:18:47.250Z,99.90
2018-03-20T20:21:15.117Z,99.90
2018-03-20T20:23:42.986Z,99.90
2018-03-20T20:26:10.853Z,99.90
2018-03-20T20:28:38.723Z,99.90
2018-03-20T20:31:06.587Z,99.90
2018-03-20T20:33:34.455Z,99.90
2018-03-20T20:36:02.322Z,99.90
2018-03-20T20:38:30.190Z,99.90
2018-03-20T20:40:58.876Z,99.90
2018-03-20T20:43:26.743Z,99.90
2018-03-20T20:45:54.612Z,99.90
2018-03-20T20:48:22.478Z,99.90
2018-03-20T20:50:50.347Z,99.90
2018-03-20T20:53:18.214Z,99.90
2018-03-20T20:55:46.080Z,99.90
2018-03-20T20:58:13.947Z,99.90
2018-03-20T21:00:41.814Z,99.90
2018-03-20T21:03:09.685Z,99.90
2018-03-20T21:05:37.550Z,99.90
2018-03-20T21:08:05.418Z,99.90
2018-03-20T21:10:33.289Z,99.90
2018-03-20T21:13:01.152Z,99.90
2018-03-20T21:15:28.977Z,99.90
2018-03-20T21:17:56.886Z,99.90
2018-03-20T21:20:24.753Z,99.90
2018-03-20T21:22:52.620Z,99.90
2018-03-20T21:25:20.488Z,99.90
2018-03-20T21:27:48.414Z,99.90
2018-03-20T21:30:17.046Z,99.90
2018-03-20T21:32:44.912Z,99.90
2018-03-20T21:35:12.776Z,99.90
2018-03-20T21:37:40.645Z,99.90
2018-03-20T21:40:08.511Z,99.90
2018-03-20T21:42:36.379Z,99.90
2018-03-20T21:45:04.247Z,99.90
2018-03-20T21:47:32.115Z,99.90
2018-03-20T21:49:59.980Z,99.90
2018-03-20T21:52:27.848Z,99.90
2018-03-20T21:54:55.720Z,99.90
2018-03-20T21:57:24.401Z,99.90
2018-03-20T21:59:52.271Z,99.90
2018-03-20T22:02:20.188Z,99.90
2018-03-20T22:04:48.822Z,99.90
2018-03-20T22:07:16.722Z,99.90
2018-03-20T22:09:45.380Z,99.90
2018-03-20T22:12:13.244Z,99.90
2018-03-20T22:14:41.112Z,99.90
2018-03-20T22:17:08.978Z,99.90
2018-03-20T22:19:36.846Z,99.90
2018-03-20T22:22:04.713Z,99.90
2018-03-20T22:24:32.581Z,99.90
2018-03-20T22:27:00.451Z,99.90
2018-03-20T22:29:28.331Z,99.90
2018-03-20T22:31:56.903Z,99.90
2018-03-20T22:34:24.765Z,99.90
2018-03-20T22:36:52.637Z,99.90
2018-03-20T22:39:20.502Z,99.90
2018-03-20T22:41:48.368Z,99.90
2018-03-20T22:44:16.236Z,99.90
2018-03-20T22:46:44.102Z,99.90
2018-03-20T22:49:11.970Z,99.90
2018-03-20T22:51:39.837Z,99.90
2018-03-20T22:54:07.706Z,99.90
2018-03-20T22:56:35.571Z,99.90
2018-03-20T22:59:03.440Z,99.90
2018-03-20T23:01:31.307Z,99.90
2018-03-20T23:03:59.174Z,99.90
2018-03-20T23:06:27.042Z,99.90
2018-03-20T23:08:54.909Z,99.90
2018-03-20T23:11:22.778Z,99.90
2018-03-20T23:13:50.706Z,99.90
2018-03-20T23:16:19.330Z,99.90
2018-03-20T23:18:47.197Z,99.90
2018-03-20T23:21:15.065Z,99.90
2018-03-20T23:23:42.933Z,99.90
2018-03-20T23:26:10.799Z,99.90
2018-03-20T23:28:38.597Z,99.90
2018-03-20T23:31:07.153Z,99.90
2018-03-20T23:33:35.016Z,99.90
2018-03-20T23:36:02.883Z,99.90
2018-03-20T23:38:30.751Z,99.90
2018-03-20T23:40:58.618Z,99.90
2018-03-20T23:43:26.485Z,99.90
2018-03-20T23:45:54.353Z,99.90
2018-03-20T23:48:22.220Z,99.90
2018-03-20T23:51:10.259Z,99.90
2018-03-20T23:53:38.127Z,99.90
2018-03-20T23:56:05.993Z,99.90
2018-03-20T23:58:33.862Z,99.90
